createdAt,value
2019-05-20T00:00:04.043Z,15.50
2019-05-20T00:01:04.082Z,15.39
2019-05-20T00:02:04.115Z,15.33
2019-05-20T00:03:04.153Z,15.29
2019-05-20T00:04:04.186Z,15.26
2019-05-20T00:05:04.222Z,15.27
2019-05-20T00:06:04.273Z,15.25
2019-05-20T00:07:04.294Z,15.19
2019-05-20T00:08:04.330Z,15.19
2019-05-20T00:09:04.378Z,15.17
2019-05-20T00:10:04.407Z,15.12
2019-05-20T00:11:04.440Z,15.14
2019-05-20T00:12:04.474Z,15.26
2019-05-20T00:13:04.511Z,15.18
2019-05-20T00:14:04.546Z,15.12
2019-05-20T00:15:04.580Z,15.11
2019-05-20T00:16:04.616Z,15.12
2019-05-20T00:17:04.671Z,15.14
2019-05-20T00:18:04.686Z,15.02
2019-05-20T00:19:04.722Z,14.96
2019-05-20T00:20:04.760Z,15.00
2019-05-20T00:21:04.795Z,14.92
2019-05-20T00:22:04.837Z,14.96
2019-05-20T00:23:04.866Z,14.85
2019-05-20T00:24:04.900Z,14.85
2019-05-20T00:25:04.941Z,14.86
2019-05-20T00:26:04.980Z,14.86
2019-05-20T00:27:05.007Z,14.82
2019-05-20T00:28:05.044Z,14.87
2019-05-20T00:29:05.085Z,14.78
2019-05-20T00:30:05.116Z,14.78
2019-05-20T00:31:05.154Z,14.77
2019-05-20T00:32:05.187Z,14.74
2019-05-20T00:33:05.237Z,14.73
2019-05-20T00:34:05.259Z,14.81
2019-05-20T00:35:05.295Z,14.90
2019-05-20T00:36:05.329Z,14.85
2019-05-20T00:37:05.364Z,14.82
2019-05-20T00:38:05.402Z,14.89
2019-05-20T00:39:05.435Z,14.90
2019-05-20T00:40:05.474Z,15.00
2019-05-20T00:41:05.575Z,15.10
2019-05-20T00:42:05.544Z,15.14
2019-05-20T00:43:05.576Z,15.12
2019-05-20T00:44:05.661Z,15.18
2019-05-20T00:45:05.650Z,15.18
2019-05-20T00:46:05.684Z,15.30
2019-05-20T00:47:05.719Z,15.32
2019-05-20T00:48:05.759Z,15.37
2019-05-20T00:49:05.792Z,15.43
2019-05-20T00:50:05.829Z,15.47
2019-05-20T00:51:05.864Z,15.51
2019-05-20T00:52:05.899Z,15.44
2019-05-20T00:53:05.933Z,15.54
2019-05-20T00:54:05.968Z,15.47
2019-05-20T00:55:06.004Z,15.48
2019-05-20T00:56:06.058Z,15.48
2019-05-20T00:57:06.103Z,15.51
2019-05-20T00:58:06.111Z,15.54
2019-05-20T00:59:06.149Z,15.51
2019-05-20T01:00:06.293Z,15.43
2019-05-20T01:01:06.216Z,15.51
2019-05-20T01:02:06.253Z,15.55
2019-05-20T01:03:06.289Z,15.45
2019-05-20T01:04:06.321Z,15.51
2019-05-20T01:05:06.360Z,15.55
2019-05-20T01:06:06.393Z,15.51
2019-05-20T01:07:06.427Z,15.35
2019-05-20T01:08:06.466Z,15.25
2019-05-20T01:09:06.503Z,15.30
2019-05-20T01:10:06.534Z,15.30
2019-05-20T01:11:06.569Z,15.36
2019-05-20T01:12:06.605Z,15.33
2019-05-20T01:13:06.638Z,15.67
2019-05-20T01:14:06.675Z,15.76
2019-05-20T01:15:06.710Z,15.78
2019-05-20T01:16:06.751Z,16.10
2019-05-20T01:17:06.781Z,16.12
2019-05-20T01:18:06.817Z,16.18
2019-05-20T01:19:06.850Z,16.12
2019-05-20T01:20:06.888Z,16.17
2019-05-20T01:21:06.934Z,16.28
2019-05-20T01:22:06.959Z,16.26
2019-05-20T01:23:06.992Z,16.22
2019-05-20T01:24:07.027Z,16.25
2019-05-20T01:25:07.068Z,16.40
2019-05-20T01:26:07.101Z,16.37
2019-05-20T01:27:07.142Z,16.44
2019-05-20T01:28:07.168Z,16.59
2019-05-20T01:29:07.202Z,16.50
2019-05-20T01:30:07.242Z,16.47
2019-05-20T01:31:07.276Z,16.46
2019-05-20T01:32:07.315Z,16.36
2019-05-20T01:33:13.674Z,16.40
2019-05-20T01:34:07.382Z,16.49
2019-05-20T01:35:07.419Z,16.32
2019-05-20T01:36:07.453Z,16.18
2019-05-20T01:37:07.496Z,16.26
2019-05-20T01:38:07.524Z,16.29
2019-05-20T01:39:07.560Z,16.34
2019-05-20T01:40:07.594Z,16.40
2019-05-20T01:41:07.631Z,16.41
2019-05-20T01:42:07.667Z,16.54
2019-05-20T01:43:07.703Z,16.50
2019-05-20T01:44:07.739Z,16.44
2019-05-20T01:45:07.781Z,16.47
2019-05-20T01:46:07.812Z,16.54
2019-05-20T01:47:07.846Z,16.49
2019-05-20T01:48:07.880Z,16.47
2019-05-20T01:49:07.921Z,16.46
2019-05-20T01:50:07.951Z,16.36
2019-05-20T01:51:07.989Z,16.39
2019-05-20T01:52:08.023Z,16.28
2019-05-20T01:53:08.055Z,16.28
2019-05-20T01:54:08.095Z,16.29
2019-05-20T01:55:08.129Z,16.22
2019-05-20T01:56:08.166Z,16.26
2019-05-20T01:57:08.198Z,16.28
2019-05-20T01:58:08.234Z,16.31
2019-05-20T01:59:08.268Z,16.32
2019-05-20T02:00:08.308Z,16.46
2019-05-20T02:01:08.340Z,16.37
2019-05-20T02:02:08.375Z,16.47
2019-05-20T02:03:08.414Z,16.47
2019-05-20T02:04:08.448Z,16.62
2019-05-20T02:05:08.488Z,16.62
2019-05-20T02:06:08.520Z,16.73
2019-05-20T02:07:08.555Z,16.80
2019-05-20T02:08:08.594Z,16.98
2019-05-20T02:09:08.627Z,17.09
2019-05-20T02:10:08.667Z,17.04
2019-05-20T02:11:08.698Z,17.10
2019-05-20T02:12:08.786Z,17.17
2019-05-20T02:13:08.771Z,17.24
2019-05-20T02:14:08.805Z,17.31
2019-05-20T02:15:08.839Z,17.32
2019-05-20T02:16:08.877Z,17.41
2019-05-20T02:17:08.911Z,17.47
2019-05-20T02:18:08.953Z,17.49
2019-05-20T02:19:08.981Z,17.52
2019-05-20T02:20:09.018Z,17.50
2019-05-20T02:21:09.052Z,17.47
2019-05-20T02:22:09.098Z,17.46
2019-05-20T02:23:09.127Z,17.50
2019-05-20T02:24:09.164Z,17.47
2019-05-20T02:25:09.198Z,17.47
2019-05-20T02:26:09.239Z,17.46
2019-05-20T02:27:09.268Z,17.47
2019-05-20T02:28:09.304Z,17.56
2019-05-20T02:29:09.339Z,17.68
2019-05-20T02:30:09.390Z,17.63
2019-05-20T02:31:09.412Z,17.78
2019-05-20T02:32:09.447Z,17.79
2019-05-20T02:33:09.496Z,17.88
2019-05-20T02:34:09.525Z,17.80
2019-05-20T02:35:09.568Z,17.91
2019-05-20T02:36:09.600Z,17.90
2019-05-20T02:37:09.636Z,17.90
2019-05-20T02:38:09.666Z,17.88
2019-05-20T02:39:09.703Z,17.84
2019-05-20T02:40:09.740Z,17.91
2019-05-20T02:41:09.778Z,17.91
2019-05-20T02:42:09.812Z,17.86
2019-05-20T02:43:09.848Z,17.93
2019-05-20T02:44:09.900Z,17.94
2019-05-20T02:45:09.922Z,17.97
2019-05-20T02:46:09.962Z,18.02
2019-05-20T02:47:10.002Z,18.00
2019-05-20T02:48:10.032Z,17.97
2019-05-20T02:49:10.071Z,18.00
2019-05-20T02:50:10.107Z,18.00
2019-05-20T02:51:10.140Z,18.05
2019-05-20T02:52:10.179Z,18.09
2019-05-20T02:53:10.221Z,18.09
2019-05-20T02:54:10.252Z,18.15
2019-05-20T02:55:10.289Z,18.24
2019-05-20T02:56:10.324Z,18.13
2019-05-20T02:57:10.361Z,18.23
2019-05-20T02:58:10.403Z,18.28
2019-05-20T02:59:10.437Z,18.18
2019-05-20T03:00:10.489Z,18.24
2019-05-20T03:01:10.511Z,18.34
2019-05-20T03:02:10.551Z,18.43
2019-05-20T03:03:10.639Z,18.41
2019-05-20T03:04:12.869Z,18.42
2019-05-20T03:05:10.658Z,18.48
2019-05-20T03:06:10.695Z,18.51
2019-05-20T03:07:10.733Z,18.49
2019-05-20T03:08:10.770Z,18.45
2019-05-20T03:09:12.338Z,18.48
2019-05-20T03:10:10.842Z,18.46
2019-05-20T03:11:10.880Z,18.48
2019-05-20T03:12:10.922Z,18.41
2019-05-20T03:13:10.955Z,18.33
2019-05-20T03:14:11.005Z,18.30
2019-05-20T03:15:11.028Z,18.21
2019-05-20T03:16:13.327Z,18.08
2019-05-20T03:17:11.109Z,17.88
2019-05-20T03:18:11.149Z,17.63
2019-05-20T03:19:11.272Z,17.38
2019-05-20T03:20:11.213Z,17.17
2019-05-20T03:21:11.253Z,17.05
2019-05-20T03:22:11.288Z,16.94
2019-05-20T03:23:11.323Z,16.92
2019-05-20T03:24:11.365Z,16.77
2019-05-20T03:25:11.401Z,16.65
2019-05-20T03:26:11.436Z,16.59
2019-05-20T03:27:11.484Z,16.51
2019-05-20T03:28:11.506Z,16.50
2019-05-20T03:29:11.542Z,16.46
2019-05-20T03:30:11.598Z,16.40
2019-05-20T03:31:11.630Z,16.39
2019-05-20T03:32:11.658Z,16.39
2019-05-20T03:33:11.688Z,16.39
2019-05-20T03:34:38.940Z,16.39
2019-05-20T03:35:11.760Z,16.39
2019-05-20T03:36:11.807Z,16.34
2019-05-20T03:37:11.832Z,16.31
2019-05-20T03:38:11.867Z,16.29
2019-05-20T03:39:11.901Z,16.34
2019-05-20T03:40:11.937Z,16.36
2019-05-20T03:41:11.977Z,16.43
2019-05-20T03:42:12.011Z,16.39
2019-05-20T03:43:12.051Z,16.39
2019-05-20T03:44:12.078Z,16.29
2019-05-20T03:45:12.113Z,16.32
2019-05-20T03:46:12.152Z,16.22
2019-05-20T03:47:12.185Z,16.25
2019-05-20T03:48:12.222Z,16.31
2019-05-20T03:49:12.257Z,16.17
2019-05-20T03:50:12.297Z,16.09
2019-05-20T03:51:12.330Z,16.13
2019-05-20T03:52:12.448Z,15.98
2019-05-20T03:53:12.398Z,16.03
2019-05-20T03:54:12.436Z,16.00
2019-05-20T03:55:12.469Z,15.96
2019-05-20T03:56:12.510Z,15.98
2019-05-20T03:57:12.538Z,15.92
2019-05-20T03:58:13.773Z,15.92
2019-05-20T03:59:12.618Z,15.91
2019-05-20T04:00:12.651Z,15.91
2019-05-20T04:01:12.682Z,16.00
2019-05-20T04:02:12.718Z,15.92
2019-05-20T04:03:12.758Z,16.03
2019-05-20T04:04:12.787Z,15.98
2019-05-20T04:05:12.821Z,15.94
2019-05-20T04:06:12.857Z,15.94
2019-05-20T04:07:12.896Z,15.96
2019-05-20T04:08:12.929Z,16.06
2019-05-20T04:09:12.970Z,16.06
2019-05-20T04:10:12.999Z,16.10
2019-05-20T04:11:13.034Z,16.12
2019-05-20T04:12:13.069Z,16.21
2019-05-20T04:13:13.118Z,16.29
2019-05-20T04:14:13.144Z,16.29
2019-05-20T04:15:13.175Z,16.34
2019-05-20T04:16:13.212Z,16.39
2019-05-20T04:17:13.247Z,16.37
2019-05-20T04:18:13.284Z,16.41
2019-05-20T04:19:13.322Z,16.54
2019-05-20T04:20:13.361Z,16.58
2019-05-20T04:21:13.394Z,16.72
2019-05-20T04:22:13.428Z,16.82
2019-05-20T04:23:13.462Z,16.84
2019-05-20T04:24:13.570Z,17.01
2019-05-20T04:25:13.536Z,17.05
2019-05-20T04:26:13.572Z,17.07
2019-05-20T04:27:13.611Z,17.05
2019-05-20T04:28:13.648Z,16.99
2019-05-20T04:29:13.684Z,16.84
2019-05-20T04:30:13.721Z,16.89
2019-05-20T04:31:13.752Z,16.79
2019-05-20T04:32:13.793Z,16.74
2019-05-20T04:33:13.825Z,16.61
2019-05-20T04:34:13.862Z,16.55
2019-05-20T04:35:22.394Z,16.50
2019-05-20T04:36:13.938Z,16.28
2019-05-20T04:37:13.975Z,16.28
2019-05-20T04:38:14.009Z,16.28
2019-05-20T04:39:14.045Z,16.03
2019-05-20T04:40:14.086Z,16.13
2019-05-20T04:41:14.123Z,16.08
2019-05-20T04:42:14.158Z,16.08
2019-05-20T04:43:14.193Z,16.13
2019-05-20T04:44:14.233Z,16.18
2019-05-20T04:45:14.268Z,16.29
2019-05-20T04:46:14.301Z,16.29
2019-05-20T04:47:14.338Z,16.41
2019-05-20T04:48:14.384Z,16.54
2019-05-20T04:49:14.410Z,16.66
2019-05-20T04:50:14.489Z,16.79
2019-05-20T04:51:14.485Z,16.79
2019-05-20T04:52:14.525Z,16.99
2019-05-20T04:53:14.571Z,17.01
2019-05-20T04:54:14.594Z,17.05
2019-05-20T04:55:14.641Z,17.10
2019-05-20T04:56:14.667Z,17.22
2019-05-20T04:57:14.703Z,17.22
2019-05-20T04:58:14.739Z,17.28
2019-05-20T04:59:14.777Z,17.24
2019-05-20T05:00:14.815Z,17.30
2019-05-20T05:01:14.934Z,17.30
2019-05-20T05:02:14.890Z,17.24
2019-05-20T05:03:14.924Z,17.10
2019-05-20T05:04:14.961Z,17.12
2019-05-20T05:05:15.006Z,17.01
2019-05-20T05:06:15.036Z,17.01
2019-05-20T05:07:15.072Z,17.02
2019-05-20T05:08:15.106Z,16.87
2019-05-20T05:09:15.780Z,16.89
2019-05-20T05:10:15.180Z,16.89
2019-05-20T05:11:15.221Z,16.87
2019-05-20T05:12:15.306Z,16.79
2019-05-20T05:13:15.304Z,16.84
2019-05-20T05:14:15.329Z,16.94
2019-05-20T05:15:15.364Z,17.01
2019-05-20T05:16:15.407Z,17.17
2019-05-20T05:17:15.437Z,17.35
2019-05-20T05:18:15.475Z,17.31
2019-05-20T05:19:15.519Z,17.34
2019-05-20T05:20:18.474Z,17.52
2019-05-20T05:21:15.589Z,17.59
2019-05-20T05:22:15.626Z,17.50
2019-05-20T05:23:15.661Z,17.60
2019-05-20T05:24:15.699Z,17.54
2019-05-20T05:25:15.739Z,17.80
2019-05-20T05:26:15.773Z,17.90
2019-05-20T05:27:15.810Z,17.91
2019-05-20T05:28:15.847Z,17.95
2019-05-20T05:29:15.888Z,17.90
2019-05-20T05:30:15.927Z,18.16
2019-05-20T05:31:15.960Z,18.31
2019-05-20T05:32:15.997Z,18.34
2019-05-20T05:33:16.036Z,18.45
2019-05-20T05:34:16.085Z,18.71
2019-05-20T05:35:16.116Z,18.94
2019-05-20T05:36:16.151Z,19.59
2019-05-20T05:37:16.188Z,20.49
2019-05-20T05:38:16.228Z,19.84
2019-05-20T05:39:16.266Z,19.52
2019-05-20T05:40:16.305Z,20.46
2019-05-20T05:41:16.349Z,20.56
2019-05-20T05:42:16.385Z,21.43
2019-05-20T05:43:16.421Z,21.45
2019-05-20T05:44:16.464Z,20.77
2019-05-20T05:45:16.501Z,20.67
2019-05-20T05:46:16.543Z,20.63
2019-05-20T05:47:16.582Z,21.13
2019-05-20T05:48:16.626Z,21.63
2019-05-20T05:49:16.665Z,21.04
2019-05-20T05:50:16.702Z,20.59
2019-05-20T05:51:16.742Z,20.10
2019-05-20T05:52:16.784Z,19.78
2019-05-20T05:53:16.825Z,19.70
2019-05-20T05:54:16.868Z,19.56
2019-05-20T05:55:16.911Z,19.38
2019-05-20T05:56:16.947Z,19.39
2019-05-20T05:57:16.992Z,19.42
2019-05-20T05:58:17.030Z,19.16
2019-05-20T05:59:17.069Z,19.07
2019-05-20T06:00:17.111Z,18.96
2019-05-20T06:01:17.161Z,18.67
2019-05-20T06:02:17.200Z,18.48
2019-05-20T06:03:17.235Z,18.42
2019-05-20T06:04:17.272Z,18.31
2019-05-20T06:05:17.313Z,18.26
2019-05-20T06:06:17.359Z,18.06
2019-05-20T06:07:17.395Z,17.87
2019-05-20T06:08:17.433Z,17.50
2019-05-20T06:09:17.477Z,17.50
2019-05-20T06:10:17.519Z,17.22
2019-05-20T06:11:17.554Z,17.13
2019-05-20T06:12:17.593Z,17.02
2019-05-20T06:13:17.635Z,17.05
2019-05-20T06:14:17.671Z,16.89
2019-05-20T06:15:17.712Z,16.87
2019-05-20T06:16:33.555Z,16.89
2019-05-20T06:17:17.789Z,16.82
2019-05-20T06:18:17.833Z,16.91
2019-05-20T06:19:17.865Z,16.95
2019-05-20T06:20:17.904Z,16.94
2019-05-20T06:21:17.943Z,17.04
2019-05-20T06:22:17.982Z,17.04
2019-05-20T06:23:18.022Z,17.16
2019-05-20T06:24:18.059Z,17.12
2019-05-20T06:25:18.098Z,17.22
2019-05-20T06:26:18.149Z,17.07
2019-05-20T06:27:18.173Z,17.16
2019-05-20T06:28:18.210Z,17.04
2019-05-20T06:29:18.255Z,17.12
2019-05-20T06:30:18.287Z,16.99
2019-05-20T06:31:18.345Z,17.01
2019-05-20T06:32:18.360Z,16.82
2019-05-20T06:33:18.404Z,16.80
2019-05-20T06:34:18.437Z,16.73
2019-05-20T06:35:18.473Z,16.72
2019-05-20T06:36:26.402Z,16.69
2019-05-20T06:37:18.554Z,16.82
2019-05-20T06:38:18.588Z,16.62
2019-05-20T06:39:18.624Z,16.62
2019-05-20T06:40:18.664Z,16.65
2019-05-20T06:41:18.729Z,16.66
2019-05-20T06:42:18.746Z,16.50
2019-05-20T06:43:18.792Z,16.44
2019-05-20T06:44:18.818Z,16.49
2019-05-20T06:45:18.851Z,16.49
2019-05-20T06:46:18.903Z,16.46
2019-05-20T06:47:18.927Z,16.37
2019-05-20T06:48:18.960Z,16.36
2019-05-20T06:49:18.997Z,16.34
2019-05-20T06:50:19.097Z,16.36
2019-05-20T06:51:19.073Z,16.34
2019-05-20T06:52:34.947Z,16.32
2019-05-20T06:53:19.147Z,16.44
2019-05-20T06:54:19.188Z,16.55
2019-05-20T06:55:19.219Z,16.61
2019-05-20T06:56:19.256Z,16.54
2019-05-20T06:57:19.292Z,16.55
2019-05-20T06:58:19.336Z,16.58
2019-05-20T06:59:19.370Z,16.76
2019-05-20T07:00:19.405Z,17.02
2019-05-20T07:01:19.441Z,16.91
2019-05-20T07:02:19.482Z,16.58
2019-05-20T07:03:19.525Z,16.65
2019-05-20T07:04:19.555Z,16.46
2019-05-20T07:05:19.592Z,16.41
2019-05-20T07:06:19.631Z,16.44
2019-05-20T07:07:21.183Z,16.58
2019-05-20T07:08:19.702Z,16.68
2019-05-20T07:09:19.742Z,16.65
2019-05-20T07:10:19.782Z,16.91
2019-05-20T07:11:19.825Z,17.16
2019-05-20T07:12:19.855Z,17.17
2019-05-20T07:13:19.905Z,17.16
2019-05-20T07:14:19.933Z,17.46
2019-05-20T07:15:19.967Z,17.17
2019-05-20T07:16:20.008Z,17.19
2019-05-20T07:17:20.058Z,17.38
2019-05-20T07:18:20.086Z,17.54
2019-05-20T07:19:20.119Z,17.69
2019-05-20T07:20:20.158Z,17.76
2019-05-20T07:21:20.196Z,17.80
2019-05-20T07:22:20.235Z,18.06
2019-05-20T07:23:20.285Z,18.26
2019-05-20T07:24:20.314Z,18.39
2019-05-20T07:25:20.364Z,18.41
2019-05-20T07:26:20.392Z,18.70
2019-05-20T07:27:20.429Z,18.76
2019-05-20T07:28:20.465Z,19.16
2019-05-20T07:29:20.507Z,19.37
2019-05-20T07:30:20.546Z,19.55
2019-05-20T07:31:20.588Z,19.70
2019-05-20T07:32:20.625Z,19.97
2019-05-20T07:33:20.660Z,19.85
2019-05-20T07:34:21.085Z,20.22
2019-05-20T07:35:30.231Z,20.71
2019-05-20T07:36:20.780Z,21.26
2019-05-20T07:37:20.832Z,21.17
2019-05-20T07:38:20.868Z,21.41
2019-05-20T07:39:20.907Z,21.28
2019-05-20T07:40:20.949Z,20.90
2019-05-20T07:41:20.984Z,20.46
2019-05-20T07:42:21.034Z,20.90
2019-05-20T07:43:21.067Z,21.43
2019-05-20T07:44:21.109Z,21.14
2019-05-20T07:45:21.165Z,21.29
2019-05-20T07:46:21.198Z,21.20
2019-05-20T07:47:21.230Z,21.19
2019-05-20T07:48:21.296Z,21.45
2019-05-20T07:49:21.317Z,21.37
2019-05-20T07:50:21.353Z,21.58
2019-05-20T07:51:21.394Z,21.20
2019-05-20T07:52:21.435Z,21.07
2019-05-20T07:53:21.477Z,20.68
2019-05-20T07:54:21.518Z,20.89
2019-05-20T07:55:21.562Z,21.15
2019-05-20T07:56:21.602Z,21.17
2019-05-20T07:57:21.664Z,21.20
2019-05-20T07:58:21.685Z,21.22
2019-05-20T07:59:21.727Z,20.93
2019-05-20T08:00:21.768Z,21.11
2019-05-20T08:01:21.813Z,21.04
2019-05-20T08:02:21.851Z,21.41
2019-05-20T08:03:21.891Z,22.08
2019-05-20T08:04:21.973Z,22.33
2019-05-20T08:05:21.975Z,22.53
2019-05-20T08:06:22.021Z,23.02
2019-05-20T08:07:27.911Z,23.29
2019-05-20T08:08:22.102Z,23.37
2019-05-20T08:09:22.144Z,23.76
2019-05-20T08:10:22.185Z,23.86
2019-05-20T08:11:22.235Z,23.67
2019-05-20T08:12:22.274Z,23.84
2019-05-20T08:13:22.333Z,24.18
2019-05-20T08:14:22.359Z,24.31
2019-05-20T08:15:22.397Z,24.00
2019-05-20T08:16:22.557Z,23.88
2019-05-20T08:17:22.489Z,23.99
2019-05-20T08:18:22.529Z,23.55
2019-05-20T08:19:22.584Z,23.20
2019-05-20T08:20:22.615Z,22.65
2019-05-20T08:21:22.661Z,22.22
2019-05-20T08:22:22.704Z,21.99
2019-05-20T08:23:22.749Z,21.77
2019-05-20T08:24:22.793Z,21.19
2019-05-20T08:25:22.832Z,21.33
2019-05-20T08:26:22.876Z,20.98
2019-05-20T08:27:22.920Z,20.36
2019-05-20T08:28:22.966Z,20.08
2019-05-20T08:29:23.010Z,20.10
2019-05-20T08:30:23.050Z,19.89
2019-05-20T08:31:23.106Z,19.97
2019-05-20T08:32:23.151Z,20.03
2019-05-20T08:33:23.175Z,19.75
2019-05-20T08:34:23.217Z,19.82
2019-05-20T08:35:23.852Z,19.78
2019-05-20T08:36:23.300Z,20.02
2019-05-20T08:37:23.342Z,20.26
2019-05-20T08:38:23.383Z,20.39
2019-05-20T08:39:23.425Z,20.11
2019-05-20T08:40:23.472Z,20.08
2019-05-20T08:41:23.535Z,20.33
2019-05-20T08:42:23.600Z,20.48
2019-05-20T08:43:23.601Z,20.27
2019-05-20T08:44:23.635Z,20.44
2019-05-20T08:45:23.678Z,20.48
2019-05-20T08:46:23.729Z,20.19
2019-05-20T08:47:23.758Z,20.12
2019-05-20T08:48:23.803Z,20.00
2019-05-20T08:49:23.853Z,20.15
2019-05-20T08:50:23.894Z,20.42
2019-05-20T08:51:23.925Z,20.44
2019-05-20T08:52:23.975Z,20.36
2019-05-20T08:53:24.010Z,20.30
2019-05-20T08:54:24.051Z,20.18
2019-05-20T08:55:24.093Z,20.33
2019-05-20T08:56:24.136Z,20.71
2019-05-20T08:57:24.176Z,20.92
2019-05-20T08:58:24.217Z,21.17
2019-05-20T08:59:24.258Z,21.14
2019-05-20T09:00:24.850Z,21.14
2019-05-20T09:01:24.347Z,21.13
2019-05-20T09:02:24.386Z,21.60
2019-05-20T09:03:24.436Z,22.30
2019-05-20T09:04:24.471Z,22.71
2019-05-20T09:05:27.935Z,22.21
2019-05-20T09:06:24.566Z,22.19
2019-05-20T09:07:24.603Z,22.80
2019-05-20T09:08:24.648Z,21.80
2019-05-20T09:09:24.797Z,21.37
2019-05-20T09:10:24.731Z,21.15
2019-05-20T09:11:24.773Z,21.29
2019-05-20T09:12:24.816Z,21.14
2019-05-20T09:13:24.860Z,21.05
2019-05-20T09:14:24.907Z,21.13
2019-05-20T09:15:24.944Z,21.05
2019-05-20T09:16:25.000Z,20.66
2019-05-20T09:17:25.036Z,20.98
2019-05-20T09:18:25.076Z,21.01
2019-05-20T09:19:25.162Z,20.93
2019-05-20T09:20:25.192Z,21.05
2019-05-20T09:21:25.214Z,20.83
2019-05-20T09:22:25.254Z,21.23
2019-05-20T09:23:25.290Z,21.35
2019-05-20T09:24:25.335Z,21.59
2019-05-20T09:25:25.374Z,22.52
2019-05-20T09:26:25.420Z,23.76
2019-05-20T09:27:25.460Z,25.06
2019-05-20T09:28:25.524Z,25.07
2019-05-20T09:29:25.569Z,26.01
2019-05-20T09:30:25.598Z,26.70
2019-05-20T09:31:25.654Z,25.66
2019-05-20T09:32:25.682Z,25.48
2019-05-20T09:33:25.759Z,24.36
2019-05-20T09:34:25.780Z,24.00
2019-05-20T09:35:25.822Z,23.81
2019-05-20T09:36:26.138Z,24.10
2019-05-20T09:37:25.911Z,24.19
2019-05-20T09:38:25.966Z,24.88
2019-05-20T09:39:26.011Z,24.41
2019-05-20T09:40:26.061Z,24.14
2019-05-20T09:41:26.098Z,24.37
2019-05-20T09:42:26.155Z,23.79
2019-05-20T09:43:26.194Z,23.07
2019-05-20T09:44:26.240Z,22.65
2019-05-20T09:45:26.287Z,22.25
2019-05-20T09:46:26.339Z,22.37
2019-05-20T09:47:26.396Z,22.89
2019-05-20T09:48:26.424Z,23.01
2019-05-20T09:49:26.731Z,23.74
2019-05-20T09:50:26.523Z,23.67
2019-05-20T09:51:26.565Z,23.14
2019-05-20T09:52:26.610Z,23.17
2019-05-20T09:53:26.658Z,22.56
2019-05-20T09:54:26.703Z,22.12
2019-05-20T09:55:26.758Z,22.49
2019-05-20T09:56:26.796Z,22.81
2019-05-20T09:57:26.845Z,22.44
2019-05-20T09:58:26.897Z,22.16
2019-05-20T09:59:42.095Z,22.23
2019-05-20T10:00:26.979Z,22.31
2019-05-20T10:01:27.027Z,22.21
2019-05-20T10:02:35.820Z,21.69
2019-05-20T10:03:27.115Z,21.83
2019-05-20T10:04:27.161Z,22.19
2019-05-20T10:05:27.207Z,22.25
2019-05-20T10:06:27.251Z,22.23
2019-05-20T10:07:27.303Z,21.85
2019-05-20T10:08:37.622Z,21.43
2019-05-20T10:09:27.385Z,21.37
2019-05-20T10:10:27.496Z,21.32
2019-05-20T10:11:27.489Z,21.59
2019-05-20T10:12:44.639Z,21.41
2019-05-20T10:13:27.567Z,21.25
2019-05-20T10:14:27.660Z,21.29
2019-05-20T10:15:27.653Z,21.29
2019-05-20T10:16:27.709Z,21.13
2019-05-20T10:17:27.740Z,21.13
2019-05-20T10:18:37.182Z,21.11
2019-05-20T10:19:27.828Z,21.17
2019-05-20T10:20:27.872Z,21.53
2019-05-20T10:21:27.913Z,21.30
2019-05-20T10:22:27.956Z,21.25
2019-05-20T10:23:27.998Z,21.29
2019-05-20T10:24:28.046Z,21.56
2019-05-20T10:25:28.088Z,21.25
2019-05-20T10:26:28.130Z,21.25
2019-05-20T10:27:28.173Z,21.37
2019-05-20T10:28:28.215Z,21.70
2019-05-20T10:29:28.255Z,22.01
2019-05-20T10:30:28.302Z,22.08
2019-05-20T10:31:28.368Z,22.36
2019-05-20T10:32:28.388Z,22.53
2019-05-20T10:33:28.426Z,22.73
2019-05-20T10:34:28.473Z,22.55
2019-05-20T10:35:28.512Z,22.40
2019-05-20T10:36:28.556Z,22.67
2019-05-20T10:37:28.613Z,22.70
2019-05-20T10:38:28.642Z,23.13
2019-05-20T10:39:28.686Z,23.58
2019-05-20T10:40:28.765Z,23.69
2019-05-20T10:41:29.691Z,24.11
2019-05-20T10:42:28.816Z,24.16
2019-05-20T10:43:28.859Z,24.13
2019-05-20T10:44:28.903Z,24.14
2019-05-20T10:45:28.950Z,24.77
2019-05-20T10:46:28.990Z,25.21
2019-05-20T10:47:29.037Z,24.78
2019-05-20T10:48:29.079Z,24.59
2019-05-20T10:49:29.127Z,25.00
2019-05-20T10:50:29.178Z,25.96
2019-05-20T10:51:29.215Z,25.91
2019-05-20T10:52:29.260Z,25.51
2019-05-20T10:53:29.306Z,24.84
2019-05-20T10:54:29.355Z,24.34
2019-05-20T10:55:29.402Z,25.01
2019-05-20T10:56:29.443Z,25.88
2019-05-20T10:57:29.491Z,26.81
2019-05-20T10:58:29.541Z,25.09
2019-05-20T10:59:29.584Z,24.89
2019-05-20T11:00:29.635Z,26.07
2019-05-20T11:01:29.679Z,26.71
2019-05-20T11:02:31.258Z,26.29
2019-05-20T11:03:29.779Z,26.96
2019-05-20T11:04:29.824Z,27.45
2019-05-20T11:05:29.872Z,28.19
2019-05-20T11:06:29.924Z,28.53
2019-05-20T11:07:29.970Z,27.33
2019-05-20T11:08:30.026Z,26.63
2019-05-20T11:09:30.072Z,26.66
2019-05-20T11:10:30.120Z,27.04
2019-05-20T11:11:30.166Z,27.82
2019-05-20T11:12:30.252Z,27.30
2019-05-20T11:13:30.271Z,27.29
2019-05-20T11:14:30.319Z,26.76
2019-05-20T11:15:30.380Z,27.50
2019-05-20T11:16:30.419Z,27.66
2019-05-20T11:17:30.472Z,27.66
2019-05-20T11:18:30.521Z,27.28
2019-05-20T11:19:30.573Z,25.34
2019-05-20T11:20:30.625Z,24.81
2019-05-20T11:21:30.695Z,24.56
2019-05-20T11:22:30.764Z,24.38
2019-05-20T11:23:30.777Z,24.77
2019-05-20T11:24:30.827Z,25.00
2019-05-20T11:25:30.879Z,24.59
2019-05-20T11:26:30.936Z,24.75
2019-05-20T11:27:30.976Z,25.01
2019-05-20T11:28:31.030Z,24.66
2019-05-20T11:29:31.077Z,25.30
2019-05-20T11:30:31.155Z,24.96
2019-05-20T11:31:31.185Z,25.29
2019-05-20T11:32:31.261Z,24.51
2019-05-20T11:33:31.279Z,24.56
2019-05-20T11:34:31.375Z,24.99
2019-05-20T11:35:31.393Z,25.71
2019-05-20T11:36:31.428Z,24.92
2019-05-20T11:37:31.479Z,25.14
2019-05-20T11:38:31.564Z,25.14
2019-05-20T11:39:34.019Z,24.55
2019-05-20T11:40:31.631Z,25.03
2019-05-20T11:41:53.247Z,25.34
2019-05-20T11:42:31.729Z,25.41
2019-05-20T11:43:31.787Z,25.48
2019-05-20T11:44:31.837Z,24.82
2019-05-20T11:45:31.884Z,25.31
2019-05-20T11:46:31.930Z,25.73
2019-05-20T11:47:31.994Z,26.59
2019-05-20T11:48:32.036Z,27.50
2019-05-20T11:49:32.115Z,27.00
2019-05-20T11:50:32.144Z,27.34
2019-05-20T11:51:32.184Z,27.25
2019-05-20T11:52:32.249Z,27.07
2019-05-20T11:53:32.281Z,27.18
2019-05-20T11:54:32.335Z,26.29
2019-05-20T11:55:32.401Z,26.34
2019-05-20T11:56:32.437Z,26.89
2019-05-20T11:57:32.489Z,27.82
2019-05-20T11:58:32.537Z,28.18
2019-05-20T11:59:32.587Z,28.47
2019-05-20T12:00:32.640Z,28.47
2019-05-20T12:01:32.694Z,28.92
2019-05-20T12:02:32.748Z,28.64
2019-05-20T12:03:32.794Z,28.93
2019-05-20T12:04:32.845Z,27.19
2019-05-20T12:05:32.900Z,26.61
2019-05-20T12:06:32.951Z,26.48
2019-05-20T12:07:33.001Z,26.33
2019-05-20T12:08:33.054Z,26.79
2019-05-20T12:09:48.363Z,26.92
2019-05-20T12:10:33.161Z,27.61
2019-05-20T12:11:33.210Z,26.66
2019-05-20T12:12:33.262Z,27.53
2019-05-20T12:13:33.324Z,28.12
2019-05-20T12:14:33.370Z,28.52
2019-05-20T12:15:33.421Z,26.71
2019-05-20T12:16:33.481Z,25.95
2019-05-20T12:17:33.527Z,27.03
2019-05-20T12:18:33.579Z,27.03
2019-05-20T12:19:33.638Z,26.45
2019-05-20T12:20:33.681Z,26.26
2019-05-20T12:21:33.736Z,26.49
2019-05-20T12:22:33.788Z,26.91
2019-05-20T12:23:33.839Z,26.31
2019-05-20T12:24:33.899Z,26.81
2019-05-20T12:25:33.955Z,27.79
2019-05-20T12:26:33.996Z,28.12
2019-05-20T12:27:34.046Z,28.60
2019-05-20T12:28:34.101Z,27.28
2019-05-20T12:29:34.160Z,26.86
2019-05-20T12:30:34.252Z,26.52
2019-05-20T12:31:34.259Z,27.16
2019-05-20T12:32:34.311Z,26.22
2019-05-20T12:33:34.363Z,25.61
2019-05-20T12:34:34.521Z,25.83
2019-05-20T12:35:34.469Z,25.99
2019-05-20T12:36:34.521Z,25.59
2019-05-20T12:37:34.577Z,25.62
2019-05-20T12:38:34.628Z,25.48
2019-05-20T12:39:34.683Z,25.66
2019-05-20T12:40:34.729Z,25.16
2019-05-20T12:41:34.793Z,26.11
2019-05-20T12:42:34.838Z,26.48
2019-05-20T12:43:34.889Z,26.29
2019-05-20T12:44:34.938Z,26.53
2019-05-20T12:45:34.989Z,25.66
2019-05-20T12:46:35.043Z,25.49
2019-05-20T12:47:35.139Z,25.39
2019-05-20T12:48:35.148Z,25.70
2019-05-20T12:49:35.326Z,26.10
2019-05-20T12:50:35.247Z,26.34
2019-05-20T12:51:35.300Z,26.23
2019-05-20T12:52:35.353Z,26.64